createdAt,value
2017-09-28T00:00:25.783Z,2.1
2017-09-28T00:01:28.504Z,2
2017-09-28T00:02:30.888Z,2.2
2017-09-28T00:03:33.257Z,2
2017-09-28T00:04:35.643Z,2
2017-09-28T00:05:38.025Z,2.1
2017-09-28T00:06:40.396Z,2.1
2017-09-28T00:07:42.784Z,2.2
2017-09-28T00:08:45.158Z,2
2017-09-28T00:09:47.534Z,2.2
2017-09-28T00:10:49.929Z,2.2
2017-09-28T00:11:52.304Z,2
2017-09-28T00:12:54.692Z,2.2
2017-09-28T00:13:57.072Z,2.1
2017-09-28T00:14:59.460Z,2.1
2017-09-28T00:16:02.182Z,2.1
2017-09-28T00:17:04.567Z,2.2
2017-09-28T00:18:06.949Z,2.2
2017-09-28T00:19:09.673Z,2.2
2017-09-28T00:20:12.060Z,2.2
2017-09-28T00:21:14.791Z,1.9
2017-09-28T00:22:17.161Z,2
2017-09-28T00:23:19.549Z,2
2017-09-28T00:24:21.924Z,2
2017-09-28T00:25:24.305Z,2.1
2017-09-28T00:26:26.684Z,2
2017-09-28T00:27:29.065Z,1.9
2017-09-28T00:28:31.454Z,2.1
2017-09-28T00:29:33.873Z,2.1
2017-09-28T00:30:36.253Z,2.2
2017-09-28T00:31:38.641Z,2.2
2017-09-28T00:32:41.021Z,2.2
2017-09-28T00:33:43.408Z,2
2017-09-28T00:34:45.789Z,2
2017-09-28T00:35:48.169Z,2.2
2017-09-28T00:36:50.554Z,2
2017-09-28T00:37:52.926Z,2.1
2017-09-28T00:38:55.661Z,2.2
2017-09-28T00:39:58.070Z,2.2
2017-09-28T00:41:00.448Z,1.9
2017-09-28T00:42:02.841Z,2.1
2017-09-28T00:43:05.254Z,1.9
2017-09-28T00:44:07.642Z,2.1
2017-09-28T00:45:10.053Z,2
2017-09-28T00:46:12.437Z,2.1
2017-09-28T00:47:14.844Z,2.1
2017-09-28T00:48:17.244Z,2
2017-09-28T00:49:19.642Z,2.2
2017-09-28T00:50:22.036Z,2.2
2017-09-28T00:51:24.429Z,2.1
2017-09-28T00:52:26.832Z,2.2
2017-09-28T00:53:29.239Z,2
2017-09-28T00:54:31.635Z,2.1
2017-09-28T00:55:34.354Z,2
2017-09-28T00:56:36.742Z,2.2
2017-09-28T00:57:39.128Z,2
2017-09-28T00:58:41.668Z,2
2017-09-28T00:59:44.059Z,2.1
2017-09-28T01:00:46.450Z,2
2017-09-28T01:01:48.838Z,2.1
2017-09-28T01:02:51.212Z,2
2017-09-28T01:03:53.604Z,2.1
2017-09-28T01:04:56.340Z,2.1
2017-09-28T01:05:58.735Z,2.1
2017-09-28T01:07:01.120Z,2.2
2017-09-28T01:08:03.502Z,2.1
2017-09-28T01:09:05.887Z,2.1
2017-09-28T01:10:08.627Z,2.1
2017-09-28T01:11:11.019Z,2.2
2017-09-28T01:12:13.396Z,2
2017-09-28T01:13:15.782Z,2.1
2017-09-28T01:14:18.163Z,2.2
2017-09-28T01:15:20.547Z,2.1
2017-09-28T01:16:22.926Z,2.1
2017-09-28T01:17:25.301Z,2.1
2017-09-28T01:18:27.682Z,2
2017-09-28T01:19:30.070Z,2
2017-09-28T01:20:32.449Z,2
2017-09-28T01:21:34.827Z,2.1
2017-09-28T01:22:37.214Z,2
2017-09-28T01:23:39.601Z,2.1
2017-09-28T01:24:42.324Z,1.9
2017-09-28T01:25:44.708Z,2.1
2017-09-28T01:26:47.086Z,2.2
2017-09-28T01:27:49.461Z,2
2017-09-28T01:28:51.858Z,2
2017-09-28T01:29:54.231Z,2
2017-09-28T01:30:56.611Z,2.1
2017-09-28T01:31:58.990Z,2
2017-09-28T01:33:01.376Z,2.1
2017-09-28T01:34:03.759Z,2.1
2017-09-28T01:35:06.145Z,2.1
2017-09-28T01:36:08.520Z,2
2017-09-28T01:37:11.275Z,2.1
2017-09-28T01:38:13.998Z,2
2017-09-28T01:39:16.379Z,2.1
2017-09-28T01:40:18.755Z,2.1
2017-09-28T01:41:21.136Z,2
2017-09-28T01:42:23.511Z,2
2017-09-28T01:43:25.901Z,1.8
2017-09-28T01:44:28.265Z,2.2
2017-09-28T01:45:30.654Z,2
2017-09-28T01:46:33.031Z,2
2017-09-28T01:47:35.743Z,2.1
2017-09-28T01:48:38.126Z,2.1
2017-09-28T01:49:40.505Z,2
2017-09-28T01:50:42.889Z,2
2017-09-28T01:51:45.276Z,2
2017-09-28T01:52:47.651Z,2.1
2017-09-28T01:53:50.033Z,2.1
2017-09-28T01:54:52.418Z,2
2017-09-28T01:55:54.793Z,2.1
2017-09-28T01:56:57.169Z,2.1
2017-09-28T01:57:59.544Z,2.1
2017-09-28T01:59:01.926Z,2.1
2017-09-28T02:00:04.299Z,2.1
2017-09-28T02:01:06.679Z,2
2017-09-28T02:02:09.063Z,2.1
2017-09-28T02:03:11.436Z,2.1
2017-09-28T02:04:13.813Z,2.1
2017-09-28T02:05:16.200Z,2.1
2017-09-28T02:06:18.917Z,2.2
2017-09-28T02:07:21.307Z,2.1
2017-09-28T02:08:23.687Z,2.1
2017-09-28T02:09:26.400Z,2
2017-09-28T02:10:28.791Z,2.1
2017-09-28T02:11:31.171Z,2.1
2017-09-28T02:12:33.890Z,2.1
2017-09-28T02:13:36.268Z,2.1
2017-09-28T02:14:38.649Z,2.1
2017-09-28T02:15:41.020Z,1.9
2017-09-28T02:16:43.746Z,2
2017-09-28T02:17:46.137Z,2
2017-09-28T02:18:48.506Z,1.9
2017-09-28T02:19:50.898Z,2.1
2017-09-28T02:20:53.284Z,2.1
2017-09-28T02:21:55.672Z,2.1
2017-09-28T02:22:58.051Z,2.1
2017-09-28T02:24:00.427Z,2.1
2017-09-28T02:25:02.804Z,2.1
2017-09-28T02:26:05.192Z,2
2017-09-28T02:27:07.564Z,2.1
2017-09-28T02:28:09.944Z,2.1
2017-09-28T02:29:12.321Z,2
2017-09-28T02:30:14.717Z,2
2017-09-28T02:31:17.090Z,2
2017-09-28T02:32:19.470Z,2.1
2017-09-28T02:33:22.203Z,2.1
2017-09-28T02:34:24.587Z,2.1
2017-09-28T02:35:26.956Z,2.1
2017-09-28T02:36:29.334Z,2
2017-09-28T02:37:31.717Z,2.1
2017-09-28T02:38:34.095Z,2.1
2017-09-28T02:39:36.479Z,2.1
2017-09-28T02:40:38.846Z,2.1
2017-09-28T02:41:41.228Z,2
2017-09-28T02:42:43.620Z,2.1
2017-09-28T02:43:46.332Z,2.2
2017-09-28T02:44:48.715Z,2
2017-09-28T02:45:51.093Z,2.1
2017-09-28T02:46:53.480Z,2
2017-09-28T02:47:55.859Z,2
2017-09-28T02:48:58.246Z,2.1
2017-09-28T02:50:00.621Z,2
2017-09-28T02:51:03.002Z,2.1
2017-09-28T02:52:05.384Z,2.1
2017-09-28T02:53:07.762Z,2.1
2017-09-28T02:54:10.142Z,2
2017-09-28T02:55:12.516Z,2
2017-09-28T02:56:15.232Z,2.1
2017-09-28T02:57:17.954Z,2.1
2017-09-28T02:58:20.338Z,2.1
2017-09-28T02:59:22.710Z,2.1
2017-09-28T03:00:25.089Z,2
2017-09-28T03:01:27.471Z,2.1
2017-09-28T03:02:29.847Z,2.1
2017-09-28T03:03:32.221Z,2
2017-09-28T03:04:34.609Z,2.1
2017-09-28T03:05:36.976Z,1.9
2017-09-28T03:06:39.369Z,2.1
2017-09-28T03:07:41.750Z,2
2017-09-28T03:08:44.127Z,2.1
2017-09-28T03:09:46.850Z,1.9
2017-09-28T03:10:49.229Z,2.1
2017-09-28T03:11:51.606Z,2.1
2017-09-28T03:12:53.988Z,2.1
2017-09-28T03:13:56.365Z,2.1
2017-09-28T03:14:59.089Z,2.1
2017-09-28T03:16:01.474Z,2.1
2017-09-28T03:17:03.860Z,1.9
2017-09-28T03:18:06.567Z,2.1
2017-09-28T03:19:08.954Z,2.1
2017-09-28T03:20:11.335Z,2.1
2017-09-28T03:21:13.715Z,2
2017-09-28T03:22:16.085Z,2
2017-09-28T03:23:18.477Z,2.1
2017-09-28T03:24:20.853Z,2.1
2017-09-28T03:25:23.250Z,2
2017-09-28T03:26:25.661Z,2
2017-09-28T03:27:28.044Z,2
2017-09-28T03:28:30.454Z,2.2
2017-09-28T03:29:32.836Z,1.9
2017-09-28T03:30:35.242Z,2.1
2017-09-28T03:31:37.963Z,2.1
2017-09-28T03:32:40.678Z,2
2017-09-28T03:33:43.065Z,2.1
2017-09-28T03:34:45.456Z,2.1
2017-09-28T03:35:47.838Z,2
2017-09-28T03:36:50.252Z,2.1
2017-09-28T03:37:52.633Z,2
2017-09-28T03:38:55.047Z,2.1
2017-09-28T03:39:57.426Z,2
2017-09-28T03:41:00.146Z,2.1
2017-09-28T03:42:02.516Z,2
2017-09-28T03:43:04.902Z,1.8
2017-09-28T03:44:07.281Z,2
2017-09-28T03:45:09.690Z,2.1
2017-09-28T03:46:12.074Z,2
2017-09-28T03:47:14.462Z,2.1
2017-09-28T03:48:16.838Z,2.1
2017-09-28T03:49:19.242Z,1.9
2017-09-28T03:50:21.637Z,1.9
2017-09-28T03:51:24.017Z,2
2017-09-28T03:52:26.426Z,2.1
2017-09-28T03:53:28.808Z,2.1
2017-09-28T03:54:31.216Z,1.9
2017-09-28T03:55:33.633Z,2
2017-09-28T03:56:36.009Z,2.1
2017-09-28T03:57:38.732Z,2.1
2017-09-28T03:58:41.124Z,2
2017-09-28T03:59:43.498Z,2.1
2017-09-28T04:00:45.953Z,2.1
2017-09-28T04:01:48.335Z,2.1
2017-09-28T04:02:50.752Z,2.1
2017-09-28T04:03:53.133Z,1.9
2017-09-28T04:04:55.518Z,2.1
2017-09-28T04:05:57.893Z,2
2017-09-28T04:07:00.275Z,1.9
2017-09-28T04:08:02.657Z,2
2017-09-28T04:09:05.031Z,2.1
2017-09-28T04:10:07.397Z,2.1
2017-09-28T04:11:09.777Z,1.8
2017-09-28T04:12:12.152Z,2.1
2017-09-28T04:13:14.543Z,2.1
2017-09-28T04:14:16.924Z,2.1
2017-09-28T04:15:19.302Z,2.1
2017-09-28T04:16:22.025Z,2.1
2017-09-28T04:17:24.405Z,1.9
2017-09-28T04:18:26.780Z,2
2017-09-28T04:19:29.164Z,2.1
2017-09-28T04:20:31.530Z,2
2017-09-28T04:21:34.249Z,2.1
2017-09-28T04:22:36.974Z,2
2017-09-28T04:23:39.350Z,2
2017-09-28T04:24:41.734Z,2
2017-09-28T04:25:44.118Z,2.1
2017-09-28T04:26:46.491Z,2
2017-09-28T04:27:48.871Z,2
2017-09-28T04:28:51.587Z,2.1
2017-09-28T04:29:53.970Z,1.9
2017-09-28T04:30:56.356Z,1.8
2017-09-28T04:31:58.727Z,2
2017-09-28T04:33:01.109Z,1.9
2017-09-28T04:34:03.838Z,1.8
2017-09-28T04:35:06.218Z,2
2017-09-28T04:36:08.599Z,1.9
2017-09-28T04:37:11.332Z,2.1
2017-09-28T04:38:13.709Z,2
2017-09-28T04:39:16.097Z,2.1
2017-09-28T04:40:18.814Z,2.1
2017-09-28T04:41:21.193Z,1.9
2017-09-28T04:42:23.579Z,2
2017-09-28T04:43:25.952Z,1.9
2017-09-28T04:44:28.334Z,1.9
2017-09-28T04:45:30.714Z,1.9
2017-09-28T04:46:33.085Z,1.9
2017-09-28T04:47:35.467Z,2
2017-09-28T04:48:37.854Z,2.1
2017-09-28T04:49:40.234Z,2.1
2017-09-28T04:50:42.613Z,2
2017-09-28T04:51:44.998Z,1.9
2017-09-28T04:52:47.375Z,2
2017-09-28T04:53:49.761Z,2
2017-09-28T04:54:52.141Z,2
2017-09-28T04:55:54.509Z,2
2017-09-28T04:56:56.893Z,1.9
2017-09-28T04:57:59.283Z,2
2017-09-28T04:59:01.659Z,2.1
2017-09-28T05:00:04.048Z,2.1
2017-09-28T05:01:06.428Z,1.9
2017-09-28T05:02:09.161Z,2.1
2017-09-28T05:03:11.538Z,1.9
2017-09-28T05:04:13.919Z,2.1
2017-09-28T05:05:16.288Z,1.8
2017-09-28T05:06:18.667Z,2
2017-09-28T05:07:21.049Z,2.1
2017-09-28T05:08:23.424Z,2
2017-09-28T05:09:25.804Z,2.1
2017-09-28T05:10:28.190Z,2
2017-09-28T05:11:30.567Z,1.9
2017-09-28T05:12:32.954Z,1.9
2017-09-28T05:13:35.327Z,1.9
2017-09-28T05:14:37.703Z,2
2017-09-28T05:15:40.082Z,1.9
2017-09-28T05:16:42.467Z,2.1
2017-09-28T05:17:44.840Z,2
2017-09-28T05:18:47.235Z,2.1
2017-09-28T05:19:49.604Z,2
2017-09-28T05:20:51.992Z,2
2017-09-28T05:21:54.372Z,2
2017-09-28T05:22:56.747Z,1.9
2017-09-28T05:23:59.125Z,2
2017-09-28T05:25:01.505Z,2.1
2017-09-28T05:26:03.888Z,1.9
2017-09-28T05:27:06.278Z,2
2017-09-28T05:28:08.997Z,1.9
2017-09-28T05:29:11.373Z,1.9
2017-09-28T05:30:13.760Z,2
2017-09-28T05:31:16.140Z,2.1
2017-09-28T05:32:18.516Z,2.1
2017-09-28T05:33:20.891Z,1.9
2017-09-28T05:34:23.273Z,2.1
2017-09-28T05:35:25.651Z,2
2017-09-28T05:36:28.039Z,2
2017-09-28T05:37:30.425Z,1.9
2017-09-28T05:38:32.795Z,2.1
2017-09-28T05:39:35.186Z,2.1
2017-09-28T05:40:37.564Z,1.8
2017-09-28T05:41:39.949Z,2
2017-09-28T05:42:42.674Z,2.1
2017-09-28T05:43:45.039Z,1.9
2017-09-28T05:44:47.425Z,2.1
2017-09-28T05:45:49.811Z,2
2017-09-28T05:46:52.183Z,2
2017-09-28T05:47:54.564Z,1.9
2017-09-28T05:48:56.943Z,2
2017-09-28T05:49:59.312Z,2.1
2017-09-28T05:51:01.697Z,2.1
2017-09-28T05:52:04.406Z,1.8
2017-09-28T05:53:06.778Z,2
2017-09-28T05:54:09.162Z,1.9
2017-09-28T05:55:11.544Z,2
2017-09-28T05:56:13.928Z,2
2017-09-28T05:57:16.300Z,2
2017-09-28T05:58:18.685Z,2
2017-09-28T05:59:21.069Z,2
2017-09-28T06:00:24.142Z,2
2017-09-28T06:01:26.515Z,2
2017-09-28T06:02:28.893Z,1.9
2017-09-28T06:03:31.265Z,2.1
2017-09-28T06:04:33.658Z,1.9
2017-09-28T06:05:36.031Z,2
2017-09-28T06:06:38.412Z,2
2017-09-28T06:07:40.790Z,2
2017-09-28T06:08:43.178Z,1.9
2017-09-28T06:09:45.560Z,2
2017-09-28T06:10:47.946Z,1.9
2017-09-28T06:11:50.323Z,2
2017-09-28T06:12:52.710Z,2
2017-09-28T06:13:55.092Z,2
2017-09-28T06:14:57.477Z,1.9
2017-09-28T06:15:59.852Z,1.9
2017-09-28T06:17:02.245Z,1.9
2017-09-28T06:18:04.614Z,2.1
2017-09-28T06:19:07.000Z,2.1
2017-09-28T06:20:09.377Z,1.9
2017-09-28T06:21:11.756Z,1.9
2017-09-28T06:22:14.141Z,2
2017-09-28T06:23:16.527Z,2
2017-09-28T06:24:18.900Z,2.1
2017-09-28T06:25:21.280Z,2.1
2017-09-28T06:26:23.666Z,2.1
2017-09-28T06:27:26.039Z,2
2017-09-28T06:28:28.417Z,2
2017-09-28T06:29:30.793Z,2
2017-09-28T06:30:33.181Z,2.1
2017-09-28T06:31:35.554Z,2.1
2017-09-28T06:32:37.932Z,2
2017-09-28T06:33:40.312Z,2.1
2017-09-28T06:34:42.693Z,2.1
2017-09-28T06:35:45.078Z,2.1
2017-09-28T06:36:47.463Z,2
2017-09-28T06:37:49.833Z,2.1
2017-09-28T06:38:52.216Z,2.1
2017-09-28T06:39:54.597Z,2.1
2017-09-28T06:40:56.980Z,2
2017-09-28T06:41:59.364Z,2.1
2017-09-28T06:43:01.748Z,2
2017-09-28T06:44:04.133Z,2.1
2017-09-28T06:45:06.517Z,2
2017-09-28T06:46:08.891Z,2.1
2017-09-28T06:47:11.272Z,2.1
2017-09-28T06:48:13.649Z,2.1
2017-09-28T06:49:16.023Z,2.1
2017-09-28T06:50:18.404Z,2
2017-09-28T06:51:21.127Z,2
2017-09-28T06:52:23.839Z,2.2
2017-09-28T06:53:26.226Z,2
2017-09-28T06:54:28.613Z,2.1
2017-09-28T06:55:30.994Z,2
2017-09-28T06:56:33.373Z,2.2
2017-09-28T06:57:35.752Z,2.2
2017-09-28T06:58:38.125Z,2.2
2017-09-28T06:59:40.503Z,2.1
2017-09-28T07:00:42.886Z,2
2017-09-28T07:01:45.276Z,2.2
2017-09-28T07:02:48.054Z,2.1
2017-09-28T07:03:50.489Z,2
2017-09-28T07:04:52.930Z,2.1
2017-09-28T07:05:55.368Z,2.2
2017-09-28T07:06:58.176Z,2.1
2017-09-28T07:08:00.963Z,2.1
2017-09-28T07:09:03.390Z,2.2
2017-09-28T07:10:05.831Z,2.2
2017-09-28T07:11:08.262Z,2.2
2017-09-28T07:12:10.707Z,2.2
2017-09-28T07:13:13.509Z,2.2
2017-09-28T07:14:15.941Z,2.1
2017-09-28T07:15:18.382Z,2.2
2017-09-28T07:16:20.828Z,2.2
2017-09-28T07:17:23.266Z,2.1
2017-09-28T07:18:25.701Z,2.1
2017-09-28T07:19:28.142Z,2.2
2017-09-28T07:20:30.577Z,2.2
2017-09-28T07:21:33.022Z,2.1
2017-09-28T07:22:35.464Z,2.1
2017-09-28T07:23:37.895Z,2.2
2017-09-28T07:24:40.326Z,2
2017-09-28T07:25:43.110Z,2.2
2017-09-28T07:26:45.549Z,2.2
2017-09-28T07:27:47.984Z,2.3
2017-09-28T07:28:50.423Z,2.3
2017-09-28T07:29:52.878Z,2.3
2017-09-28T07:30:55.310Z,2.3
2017-09-28T07:31:57.752Z,2.2
2017-09-28T07:33:00.177Z,2.3
2017-09-28T07:34:02.962Z,2.3
2017-09-28T07:35:05.401Z,2.2
2017-09-28T07:36:07.840Z,2.2
2017-09-28T07:37:10.305Z,2.3
2017-09-28T07:38:12.744Z,2.3
2017-09-28T07:39:15.514Z,2.3
2017-09-28T07:40:17.954Z,2
2017-09-28T07:41:20.385Z,2.3
2017-09-28T07:42:22.819Z,2.3
2017-09-28T07:43:25.250Z,2.3
2017-09-28T07:44:28.038Z,2.3
2017-09-28T07:45:30.479Z,2.3
2017-09-28T07:46:32.937Z,2.3
2017-09-28T07:47:35.360Z,2.2
2017-09-28T07:48:37.810Z,2.3
2017-09-28T07:49:40.257Z,2.3
2017-09-28T07:50:42.645Z,2.3
2017-09-28T07:51:45.360Z,2.3
2017-09-28T07:52:48.595Z,2.3
2017-09-28T07:53:50.986Z,2.4
2017-09-28T07:54:53.364Z,2.4
2017-09-28T07:55:55.760Z,2.4
2017-09-28T07:56:58.152Z,2.3
2017-09-28T07:58:00.543Z,2.4
2017-09-28T07:59:03.288Z,2.4
2017-09-28T08:00:05.697Z,2.3
2017-09-28T08:01:08.101Z,2.4
2017-09-28T08:02:10.499Z,2.4
2017-09-28T08:03:12.892Z,2.4
2017-09-28T08:04:15.272Z,2.4
2017-09-28T08:05:17.657Z,2.4
2017-09-28T08:06:20.052Z,2.3
2017-09-28T08:07:22.796Z,2.4
2017-09-28T08:08:25.188Z,2.4
2017-09-28T08:09:27.924Z,2.4
2017-09-28T08:10:30.305Z,2.4
2017-09-28T08:11:32.691Z,2.4
2017-09-28T08:12:35.077Z,2.4
2017-09-28T08:13:37.459Z,2.4
2017-09-28T08:14:40.177Z,2.4
2017-09-28T08:15:42.572Z,2.4
2017-09-28T08:16:44.957Z,2.5
2017-09-28T08:17:47.346Z,2.5
2017-09-28T08:18:50.069Z,2.5
2017-09-28T08:19:52.455Z,2.4
2017-09-28T08:20:54.841Z,2.4
2017-09-28T08:21:57.228Z,2.4
2017-09-28T08:22:59.608Z,2.5
2017-09-28T08:24:02.332Z,2.4
2017-09-28T08:25:04.721Z,2.5
2017-09-28T08:26:07.101Z,2.5
2017-09-28T08:27:09.481Z,2.5
2017-09-28T08:28:11.865Z,2.5
2017-09-28T08:29:14.250Z,2.3
2017-09-28T08:30:16.616Z,2.5
2017-09-28T08:31:18.971Z,2.5
2017-09-28T08:32:21.328Z,2.5
2017-09-28T08:33:23.685Z,2.5
2017-09-28T08:34:26.043Z,2.5
2017-09-28T08:35:28.402Z,2.5
2017-09-28T08:36:30.766Z,2.5
2017-09-28T08:37:33.127Z,2.5
2017-09-28T08:38:35.557Z,2.5
2017-09-28T08:39:37.914Z,2.6
2017-09-28T08:40:40.271Z,2.4
2017-09-28T08:41:42.629Z,2.6
2017-09-28T08:42:44.984Z,2.6
2017-09-28T08:43:47.343Z,2.5
2017-09-28T08:44:50.043Z,2.6
2017-09-28T08:45:52.399Z,2.5
2017-09-28T08:46:54.760Z,2.5
2017-09-28T08:47:57.120Z,2.5
2017-09-28T08:48:59.816Z,2.6
2017-09-28T08:50:02.173Z,2.5
2017-09-28T08:51:04.531Z,2.5
2017-09-28T08:52:06.887Z,2.5
2017-09-28T08:53:09.244Z,2.5
2017-09-28T08:54:11.942Z,2.6
2017-09-28T08:55:14.299Z,2.5
2017-09-28T08:56:16.659Z,2.6
2017-09-28T08:57:19.015Z,2.6
2017-09-28T08:58:21.371Z,2.6
2017-09-28T08:59:24.066Z,2.6
2017-09-28T09:00:26.427Z,2.6
2017-09-28T09:01:28.788Z,2.5
2017-09-28T09:02:31.148Z,2.6
2017-09-28T09:03:33.507Z,2.6
2017-09-28T09:04:36.202Z,2.5
2017-09-28T09:05:38.559Z,2.6
2017-09-28T09:06:40.926Z,2.6
2017-09-28T09:07:43.296Z,2.6
2017-09-28T09:08:45.663Z,2.6
2017-09-28T09:09:48.374Z,2.6
2017-09-28T09:10:51.085Z,2.6
2017-09-28T09:11:53.460Z,2.6
2017-09-28T09:12:55.820Z,2.6
2017-09-28T09:13:58.176Z,2.6
2017-09-28T09:15:02.174Z,2.7
2017-09-28T09:16:04.543Z,2.6
2017-09-28T09:17:07.682Z,2.7
2017-09-28T09:18:10.056Z,2.7
2017-09-28T09:19:12.417Z,2.7
2017-09-28T09:20:14.776Z,2.7
2017-09-28T09:21:17.134Z,2.8
2017-09-28T09:22:19.501Z,2.8
2017-09-28T09:23:21.870Z,2.9
2017-09-28T09:24:24.229Z,2.8
2017-09-28T09:25:26.939Z,2.8
2017-09-28T09:26:29.314Z,2.8
2017-09-28T09:27:31.680Z,2.8
2017-09-28T09:28:34.043Z,2.9
2017-09-28T09:29:36.404Z,2.9
2017-09-28T09:30:38.806Z,2.9
2017-09-28T09:31:41.164Z,2.9
2017-09-28T09:32:43.524Z,2.9
2017-09-28T09:33:45.892Z,2.9
2017-09-28T09:34:48.262Z,2.7
2017-09-28T09:35:50.641Z,2.9
2017-09-28T09:36:53.011Z,2.9
2017-09-28T09:37:55.371Z,2.8
2017-09-28T09:38:57.735Z,2.9
2017-09-28T09:40:00.095Z,2.9
2017-09-28T09:41:02.456Z,3
2017-09-28T09:42:04.821Z,2.9
2017-09-28T09:43:07.544Z,2.9
2017-09-28T09:44:10.272Z,2.9
2017-09-28T09:45:12.603Z,2.9
2017-09-28T09:46:14.964Z,2.9
2017-09-28T09:47:17.327Z,3
2017-09-28T09:48:19.689Z,2.9
2017-09-28T09:49:22.052Z,3
2017-09-28T09:50:24.412Z,3
2017-09-28T09:51:26.774Z,2.9
2017-09-28T09:52:29.134Z,2.9
2017-09-28T09:53:31.493Z,2.9
2017-09-28T09:54:33.856Z,2.9
2017-09-28T09:55:36.214Z,2.9
2017-09-28T09:56:38.575Z,3
2017-09-28T09:57:40.939Z,2.9
2017-09-28T09:58:43.300Z,2.9
2017-09-28T09:59:45.662Z,2.9
2017-09-28T10:00:48.023Z,2.9
2017-09-28T10:01:50.381Z,3
2017-09-28T10:02:52.743Z,3
2017-09-28T10:03:55.103Z,3
2017-09-28T10:04:57.466Z,3
2017-09-28T10:05:59.828Z,3
2017-09-28T10:07:02.523Z,3
2017-09-28T10:08:05.222Z,3
2017-09-28T10:09:07.585Z,3
2017-09-28T10:10:09.943Z,3
2017-09-28T10:11:12.306Z,3
2017-09-28T10:12:14.666Z,2.9
2017-09-28T10:13:17.026Z,3.1
2017-09-28T10:14:19.389Z,3.1
2017-09-28T10:15:21.750Z,3.2
2017-09-28T10:16:24.109Z,3.1
2017-09-28T10:17:26.469Z,3.2
2017-09-28T10:18:28.831Z,3.1
2017-09-28T10:19:31.192Z,3
2017-09-28T10:20:33.554Z,3.1
2017-09-28T10:21:35.916Z,3.1
2017-09-28T10:22:38.274Z,3.1
2017-09-28T10:23:40.637Z,3.2
2017-09-28T10:24:44.859Z,3.2
2017-09-28T10:25:47.221Z,3.2
2017-09-28T10:26:49.581Z,3.2
2017-09-28T10:27:52.015Z,3.2
2017-09-28T10:28:54.375Z,3.3
2017-09-28T10:29:56.816Z,3.3
2017-09-28T10:31:00.958Z,3.3
2017-09-28T10:32:03.448Z,3.5
2017-09-28T10:33:05.813Z,3.4
2017-09-28T10:34:08.175Z,3.5
2017-09-28T10:35:10.540Z,3.6
2017-09-28T10:36:12.907Z,3.6
2017-09-28T10:37:15.406Z,3.6
2017-09-28T10:38:17.770Z,3.7
2017-09-28T10:39:20.132Z,3.6
2017-09-28T10:40:22.838Z,3.6
2017-09-28T10:41:25.555Z,3.5
2017-09-28T10:42:27.920Z,3.6
2017-09-28T10:43:30.284Z,3.6
2017-09-28T10:44:32.652Z,3.6
2017-09-28T10:45:35.360Z,3.5
2017-09-28T10:46:37.771Z,3.5
2017-09-28T10:47:40.136Z,3.5
2017-09-28T10:48:42.501Z,3.5
2017-09-28T10:49:44.862Z,3.5
2017-09-28T10:50:47.227Z,3.5
2017-09-28T10:51:49.590Z,3.4
2017-09-28T10:52:51.955Z,3.4
2017-09-28T10:53:54.383Z,3.4
2017-09-28T10:54:56.744Z,3.5
2017-09-28T10:55:59.191Z,3.4
2017-09-28T10:57:01.554Z,3.4
2017-09-28T10:58:04.345Z,3.4
2017-09-28T10:59:06.808Z,3.4
2017-09-28T11:00:09.243Z,3.4
2017-09-28T11:01:11.607Z,3.5
2017-09-28T11:02:14.338Z,3.4
2017-09-28T11:03:16.701Z,3.5
2017-09-28T11:04:19.138Z,3.3
2017-09-28T11:05:21.503Z,3.3
2017-09-28T11:06:24.001Z,3.4
2017-09-28T11:07:26.700Z,3.4
2017-09-28T11:08:29.189Z,3.3
2017-09-28T11:09:31.548Z,3.4
2017-09-28T11:10:34.009Z,3.3
2017-09-28T11:11:36.367Z,3.3
2017-09-28T11:12:38.855Z,3.3
2017-09-28T11:13:41.220Z,3.2
2017-09-28T11:14:43.635Z,3.3
2017-09-28T11:15:46.000Z,3.3
2017-09-28T11:16:48.430Z,3.3
2017-09-28T11:17:50.790Z,3.3
2017-09-28T11:18:53.252Z,3.4
2017-09-28T11:19:55.615Z,3.4
2017-09-28T11:20:58.014Z,3.5
2017-09-28T11:22:00.382Z,3.5
2017-09-28T11:23:02.746Z,3.5
2017-09-28T11:24:05.110Z,3.6
2017-09-28T11:25:07.472Z,3.5
2017-09-28T11:26:09.834Z,3.5
2017-09-28T11:27:12.195Z,3.5
2017-09-28T11:28:14.682Z,3.5
2017-09-28T11:29:17.048Z,3.6
2017-09-28T11:30:19.566Z,3.6
2017-09-28T11:31:21.930Z,3.5
2017-09-28T11:32:24.391Z,3.6
2017-09-28T11:33:26.754Z,3.6
2017-09-28T11:34:29.198Z,3.7
2017-09-28T11:35:31.562Z,3.8
2017-09-28T11:36:34.007Z,3.7
2017-09-28T11:37:36.380Z,3.8
2017-09-28T11:38:38.739Z,3.7
2017-09-28T11:39:41.106Z,3.8
2017-09-28T11:40:43.474Z,3.7
2017-09-28T11:41:45.839Z,3.7
2017-09-28T11:42:48.211Z,3.8
2017-09-28T11:43:50.640Z,3.7
2017-09-28T11:44:53.019Z,3.8
2017-09-28T11:45:55.384Z,3.9
2017-09-28T11:46:57.750Z,4
2017-09-28T11:48:00.114Z,4
2017-09-28T11:49:02.492Z,4.1
2017-09-28T11:50:04.860Z,4
2017-09-28T11:51:07.227Z,4
2017-09-28T11:52:09.604Z,4.1
2017-09-28T11:53:11.975Z,4.1
2017-09-28T11:54:14.343Z,4.2
2017-09-28T11:55:16.707Z,4.1
2017-09-28T11:56:19.087Z,4.2
2017-09-28T11:57:21.471Z,4.2
2017-09-28T11:58:23.835Z,4.2
2017-09-28T11:59:26.221Z,4.2
2017-09-28T12:00:28.942Z,4.3
2017-09-28T12:01:31.323Z,4.3
2017-09-28T12:02:33.702Z,4.4
2017-09-28T12:03:36.079Z,4.3
2017-09-28T12:04:38.455Z,4.4
2017-09-28T12:05:40.832Z,4.4
2017-09-28T12:06:43.201Z,4.4
2017-09-28T12:07:45.575Z,4.5
2017-09-28T12:08:47.941Z,4.4
2017-09-28T12:09:50.307Z,4.5
2017-09-28T12:10:52.673Z,4.4
2017-09-28T12:11:55.177Z,4.5
2017-09-28T12:12:57.548Z,4.4
2017-09-28T12:13:59.916Z,4.4
2017-09-28T12:15:02.289Z,4.3
2017-09-28T12:16:04.670Z,4.8
2017-09-28T12:17:07.040Z,4.3
2017-09-28T12:18:09.431Z,4.4
2017-09-28T12:19:11.812Z,4.4
2017-09-28T12:20:14.198Z,4.4
2017-09-28T12:21:16.576Z,4.4
2017-09-28T12:22:18.942Z,4.4
2017-09-28T12:23:21.696Z,4.3
2017-09-28T12:24:24.074Z,4.4
2017-09-28T12:25:26.786Z,4.4
2017-09-28T12:26:29.509Z,4.4
2017-09-28T12:27:31.885Z,4.4
2017-09-28T12:28:34.625Z,4.5
2017-09-28T12:29:37.025Z,4.5
2017-09-28T12:30:39.392Z,4.4
2017-09-28T12:31:41.761Z,4.4
2017-09-28T12:32:44.130Z,4.5
2017-09-28T12:33:46.498Z,4.5
2017-09-28T12:34:48.882Z,4.4
2017-09-28T12:35:51.263Z,4.2
2017-09-28T12:36:53.671Z,4.4
2017-09-28T12:37:56.075Z,4.2
2017-09-28T12:38:58.471Z,4.4
2017-09-28T12:40:01.216Z,4.3
2017-09-28T12:41:03.597Z,4.2
2017-09-28T12:42:05.973Z,4.3
2017-09-28T12:43:08.339Z,4.3
2017-09-28T12:44:10.703Z,4.2
2017-09-28T12:45:13.067Z,4.2
2017-09-28T12:46:15.432Z,4.2
2017-09-28T12:47:17.808Z,4.2
2017-09-28T12:48:20.179Z,4.2
2017-09-28T12:49:22.548Z,4.1
2017-09-28T12:50:24.915Z,4.2
2017-09-28T12:51:27.387Z,4.2
2017-09-28T12:52:29.754Z,4.2
2017-09-28T12:53:32.123Z,4.1
2017-09-28T12:54:34.527Z,4.2
2017-09-28T12:55:36.945Z,4
2017-09-28T12:56:39.384Z,4.1
2017-09-28T12:57:41.753Z,4
2017-09-28T12:58:44.126Z,3.9
2017-09-28T12:59:46.501Z,4.4
2017-09-28T13:00:48.865Z,4.1
2017-09-28T13:01:51.231Z,4
2017-09-28T13:02:53.627Z,4
2017-09-28T13:03:55.994Z,4
2017-09-28T13:04:58.751Z,4
2017-09-28T13:06:01.218Z,4
2017-09-28T13:07:03.584Z,3.9
2017-09-28T13:08:05.953Z,3.9
2017-09-28T13:09:27.524Z,3.9
2017-09-28T13:10:29.892Z,3.9
2017-09-28T13:11:32.255Z,3.9
2017-09-28T13:12:34.650Z,3.9
2017-09-28T13:13:37.018Z,3.9
2017-09-28T13:14:39.725Z,3.9
2017-09-28T13:15:42.091Z,3.8
2017-09-28T13:16:44.458Z,3.8
2017-09-28T13:17:47.162Z,3.9
2017-09-28T13:18:49.527Z,3.8
2017-09-28T13:19:51.894Z,3.8
2017-09-28T13:20:54.257Z,3.7
2017-09-28T13:21:56.654Z,3.9
2017-09-28T13:22:59.030Z,4.1
2017-09-28T13:24:01.407Z,3.8
2017-09-28T13:25:03.778Z,3.7
2017-09-28T13:26:06.164Z,3.7
2017-09-28T13:27:08.529Z,3.7
2017-09-28T13:28:11.260Z,3.7
2017-09-28T13:29:13.626Z,3.7
2017-09-28T13:30:16.012Z,3.7
2017-09-28T13:31:18.424Z,3.7
2017-09-28T13:32:20.800Z,3.6
2017-09-28T13:33:23.168Z,3.5
2017-09-28T13:34:25.539Z,3.6
2017-09-28T13:35:27.919Z,3.7
2017-09-28T13:36:30.285Z,3.7
2017-09-28T13:37:33.010Z,3.7
2017-09-28T13:38:35.736Z,3.6
2017-09-28T13:39:38.442Z,3.6
2017-09-28T13:40:41.159Z,3.6
2017-09-28T13:41:43.523Z,3.5
2017-09-28T13:42:45.889Z,3.6
2017-09-28T13:43:48.256Z,3.6
2017-09-28T13:44:50.959Z,3.5
2017-09-28T13:45:53.354Z,3.6
2017-09-28T13:46:55.739Z,3.5
2017-09-28T13:47:58.440Z,3.5
2017-09-28T13:49:00.829Z,3.5
2017-09-28T13:50:03.195Z,3.4
2017-09-28T13:51:05.572Z,3.5
2017-09-28T13:52:07.937Z,3.5
2017-09-28T13:53:10.308Z,3.5
2017-09-28T13:54:12.671Z,3.5
2017-09-28T13:55:15.039Z,3.4
2017-09-28T13:56:17.407Z,3.4
2017-09-28T13:57:19.775Z,3.4
2017-09-28T13:58:22.162Z,3.4
2017-09-28T13:59:24.539Z,3.5
2017-09-28T14:00:26.919Z,3.4
2017-09-28T14:01:29.296Z,3.4
2017-09-28T14:02:31.683Z,3.5
2017-09-28T14:03:34.386Z,3.3
2017-09-28T14:04:36.753Z,3.4
2017-09-28T14:05:39.119Z,3.4
2017-09-28T14:06:41.489Z,3.4
2017-09-28T14:07:43.863Z,3.4
2017-09-28T14:08:46.252Z,3.3
2017-09-28T14:09:48.630Z,3.3
2017-09-28T14:10:51.006Z,3.4
2017-09-28T14:11:53.585Z,3.4
2017-09-28T14:12:55.948Z,3.3
2017-09-28T14:13:58.321Z,3.4
2017-09-28T14:15:00.689Z,3.4
2017-09-28T14:16:03.070Z,3.3
2017-09-28T14:17:05.456Z,3.3
2017-09-28T14:18:07.843Z,3.3
2017-09-28T14:19:10.544Z,3.3
2017-09-28T14:20:12.916Z,3.3
2017-09-28T14:21:15.293Z,3.3
2017-09-28T14:22:17.667Z,3.2
2017-09-28T14:23:20.029Z,3.2
2017-09-28T14:24:22.394Z,3.3
2017-09-28T14:25:24.758Z,3.2
2017-09-28T14:26:27.117Z,3.2
2017-09-28T14:27:29.488Z,3.3
2017-09-28T14:28:31.867Z,3.3
2017-09-28T14:29:34.229Z,3.5
2017-09-28T14:30:36.926Z,3.2
2017-09-28T14:31:39.298Z,3.1